Aérodrome :
LOGIN :

S'inscrire | Disclaimer

   EN    FR    IT 

 










Légende :    VFR   VFR Marginal   IFR   IFR Intensif   IFR Très Intensif
Visi : 
Plafond : 
>= 8 km
>= 3000ft
5 à 8 km
1000 à 3000 ft
1500m à 5 km
500 à 1000 ft
800 à 1500m
200 à 500 ft
< 800m
< 200 ft
Symboles :   Orages  Brouillard  Fortes neiges  Fortes précipitations  Vent > 20 kt
SIGMETs :   Divers  Orages  Givrage  Turbulence  Onde Orograph.  Cendres Volcan.






- Altitude de l'aérodrome : 228 ft
- Code IATA : OPO


LPPR - Porto Fr. Sa Carneiro

DERNIER METAR :
  • 091430Z 35004KT 310V020 CAVOK 13/10 Q1031

METARs EXPIRÉS :
  • 091400Z 36006KT 330V030 CAVOK 13/09 Q1031
  • 091330Z 33005KT 300V010 13/09 Q1032
  • 091300Z 04003KT 330V090 CAVOK 13/09 Q1032
  • 091230Z 06004KT 020V090 CAVOK 11/10 Q1032
  • 091200Z 07004KT 360V150 9000 FEW003 10/10 Q1033

TAF TAF LPPR
Valide du 09 à 12h jusqu'au 10 à 12h UTC


091100Z 0912/1012 03005KT 6000 SCT002
BECMG 0912/0915 34010KT CAVOK
BECMG 0918/0920 VRB03KT 9999 FEW008
PROB30
TEMPO 0921/1008 3000 BR SCT002



MET'MAP, la Météo Aéronautique d'un coup d'oeil ! - Copyright ORBIFLY Décembre 2007 - Disclaimer

ORBIFLY MET'MAP TEAM :

Programmation & Développement : Alexandra Zaïnal
Sur une idée originale de : Baudouin d'Aumeries
Assistance à la programmation : Marc-Olivier Méhu
Soutien technique & logistique : Manuel Goepfert

Contact : metmap@orbifly.com




SOURCES & CREDITS :

   NOAA